createdAt,value
2023-06-07T00:00:19.991Z,97886.34
2023-06-07T00:02:47.786Z,97890.31
2023-06-07T00:05:15.698Z,97883.84
2023-06-07T00:07:43.878Z,97885.91
2023-06-07T00:10:13.598Z,97883.09
2023-06-07T00:12:42.916Z,97895.25
2023-06-07T00:15:11.210Z,97881.53
2023-06-07T00:17:41.875Z,97886.16
2023-06-07T00:20:11.072Z,97878.66
2023-06-07T00:22:39.784Z,97872.19
2023-06-07T00:25:08.273Z,97871.16
2023-06-07T00:27:36.141Z,97878.28
2023-06-07T00:30:06.386Z,97878.44
2023-06-07T00:32:34.233Z,97865.94
2023-06-07T00:35:01.787Z,97875.53
2023-06-07T00:37:29.280Z,97871.31
2023-06-07T00:39:56.825Z,97877.00
2023-06-07T00:42:24.373Z,97876.78
2023-06-07T00:44:52.019Z,97881.66
2023-06-07T00:47:20.905Z,97872.31
2023-06-07T00:49:49.965Z,97868.47
2023-06-07T00:52:18.721Z,97892.75
2023-06-07T00:54:46.709Z,97887.13
2023-06-07T00:57:16.742Z,97880.47
2023-06-07T00:59:45.057Z,97879.34
2023-06-07T01:02:16.047Z,97889.03
2023-06-07T01:04:45.448Z,97882.16
2023-06-07T01:07:13.518Z,97884.03
2023-06-07T01:09:41.265Z,97886.09
2023-06-07T01:12:15.724Z,97881.84
2023-06-07T01:14:44.627Z,97868.00
2023-06-07T01:17:13.840Z,97863.00
2023-06-07T01:19:43.244Z,97864.28
2023-06-07T01:22:15.189Z,97862.72
2023-06-07T01:24:44.156Z,97860.25
2023-06-07T01:27:12.242Z,97863.72
2023-06-07T01:29:40.265Z,97855.81
2023-06-07T01:32:10.477Z,97867.19
2023-06-07T01:34:38.736Z,97854.94
2023-06-07T01:37:07.104Z,97865.91
2023-06-07T01:39:35.474Z,97858.78
2023-06-07T01:42:05.892Z,97859.66
2023-06-07T01:44:33.758Z,97860.50
2023-06-07T01:47:01.459Z,97860.72
2023-06-07T01:49:29.014Z,97855.44
2023-06-07T01:51:56.699Z,97858.91
2023-06-07T01:54:24.675Z,97859.75
2023-06-07T01:57:05.370Z,97859.53
2023-06-07T01:59:43.878Z,97845.63
2023-06-07T02:02:19.176Z,97851.44
2023-06-07T02:04:49.811Z,97850.66
2023-06-07T02:07:24.723Z,97855.94
2023-06-07T02:09:53.232Z,97856.81
2023-06-07T02:12:22.255Z,97864.09
2023-06-07T02:14:53.445Z,97855.31
2023-06-07T02:17:21.505Z,97856.81
2023-06-07T02:19:49.331Z,97857.63
2023-06-07T02:22:17.025Z,97860.94
2023-06-07T02:24:45.410Z,97855.47
2023-06-07T02:27:13.993Z,97859.50
2023-06-07T02:29:41.514Z,97852.59
2023-06-07T02:32:10.917Z,97858.94
2023-06-07T02:34:40.461Z,97856.91
2023-06-07T02:37:07.970Z,97866.63
2023-06-07T02:39:35.501Z,97864.47
2023-06-07T02:42:03.089Z,97861.19
2023-06-07T02:44:30.558Z,97863.63
2023-06-07T02:46:58.378Z,97867.31
2023-06-07T02:49:27.405Z,97873.03
2023-06-07T02:51:55.076Z,97863.63
2023-06-07T02:54:22.636Z,97863.94
2023-06-07T02:56:50.107Z,97861.03
2023-06-07T02:59:17.625Z,97866.13
2023-06-07T03:01:45.100Z,97857.81
2023-06-07T03:04:12.608Z,97853.13
2023-06-07T03:06:42.304Z,97866.50
2023-06-07T03:09:10.193Z,97855.69
2023-06-07T03:11:37.658Z,97860.63
2023-06-07T03:14:05.149Z,97853.28
2023-06-07T03:16:33.202Z,97857.72
2023-06-07T03:19:00.771Z,97863.75
2023-06-07T03:21:28.444Z,97859.38
2023-06-07T03:23:57.402Z,97869.16
2023-06-07T03:26:25.037Z,97871.06
2023-06-07T03:28:53.438Z,97869.56
2023-06-07T03:31:21.120Z,97867.50
2023-06-07T03:33:48.757Z,97866.03
2023-06-07T03:36:21.845Z,97860.34
2023-06-07T03:38:49.608Z,97864.94
2023-06-07T03:41:18.464Z,97860.13
2023-06-07T03:43:45.931Z,97865.75
2023-06-07T03:46:13.485Z,97870.19
2023-06-07T03:48:41.088Z,97863.88
2023-06-07T03:51:08.693Z,97866.16
2023-06-07T03:53:36.215Z,97861.09
2023-06-07T03:56:04.289Z,97866.94
2023-06-07T03:58:33.491Z,97871.97
2023-06-07T04:01:01.092Z,97864.84
2023-06-07T04:03:29.362Z,97866.34
2023-06-07T04:05:56.970Z,97870.47
2023-06-07T04:08:24.844Z,97869.72
2023-06-07T04:10:53.796Z,97869.53
2023-06-07T04:13:21.387Z,97868.69
2023-06-07T04:15:50.441Z,97870.78
2023-06-07T04:18:17.968Z,97874.78
2023-06-07T04:20:45.488Z,97870.94
2023-06-07T04:23:13.200Z,97875.97
2023-06-07T04:25:40.900Z,97879.03
2023-06-07T04:28:11.407Z,97881.59
2023-06-07T04:30:42.206Z,97881.75
2023-06-07T04:33:14.106Z,97876.72
2023-06-07T04:35:43.793Z,97878.13
2023-06-07T04:38:12.897Z,97888.56
2023-06-07T04:40:42.258Z,97880.84
2023-06-07T04:43:12.138Z,97880.31
2023-06-07T04:45:42.476Z,97888.44
2023-06-07T04:48:12.717Z,97889.84
2023-06-07T04:50:42.269Z,97878.97
2023-06-07T04:53:11.968Z,97878.88
2023-06-07T04:55:42.722Z,97877.06
2023-06-07T04:58:10.875Z,97875.28
2023-06-07T05:00:40.157Z,97867.63
2023-06-07T05:03:09.579Z,97873.69
2023-06-07T05:05:39.142Z,97890.34
2023-06-07T05:08:06.845Z,97886.84
2023-06-07T05:10:34.496Z,97888.91
2023-06-07T05:13:02.132Z,97879.16
2023-06-07T05:15:29.667Z,97880.03
2023-06-07T05:17:57.247Z,97888.91
2023-06-07T05:20:26.097Z,97896.91
2023-06-07T05:22:58.197Z,97894.47
2023-06-07T05:25:25.849Z,97894.66
2023-06-07T05:28:08.223Z,97904.41
2023-06-07T05:30:40.944Z,97903.91
2023-06-07T05:33:08.609Z,97896.81
2023-06-07T05:35:36.167Z,97895.84
2023-06-07T05:38:05.162Z,97908.06
2023-06-07T05:40:32.682Z,97912.38
2023-06-07T05:43:00.215Z,97914.31
2023-06-07T05:45:27.702Z,97903.59
2023-06-07T05:47:55.377Z,97914.38
2023-06-07T05:50:24.982Z,97912.72
2023-06-07T05:52:57.392Z,97921.44
2023-06-07T05:55:28.059Z,97909.00
2023-06-07T05:57:58.110Z,97914.28
2023-06-07T06:00:25.855Z,97910.38
2023-06-07T06:02:54.109Z,97913.56
2023-06-07T06:05:24.588Z,97915.59
2023-06-07T06:07:52.621Z,97899.31
2023-06-07T06:10:20.125Z,97911.69
2023-06-07T06:12:49.060Z,97917.69
2023-06-07T06:15:16.553Z,97917.00
2023-06-07T06:17:44.123Z,97913.16
2023-06-07T06:20:13.282Z,97914.00
2023-06-07T06:22:41.011Z,97918.50
2023-06-07T06:25:09.932Z,97917.69
2023-06-07T06:27:37.464Z,97910.72
2023-06-07T06:30:08.082Z,97907.25
2023-06-07T06:32:36.119Z,97906.63
2023-06-07T06:35:04.218Z,97903.44
2023-06-07T06:37:31.810Z,97909.00
2023-06-07T06:39:59.306Z,97904.00
2023-06-07T06:42:26.975Z,97905.81
2023-06-07T06:44:54.448Z,97904.75
2023-06-07T06:47:23.622Z,97903.97
2023-06-07T06:49:52.702Z,97915.97
2023-06-07T06:52:20.354Z,97911.94
2023-06-07T06:54:47.842Z,97908.53
2023-06-07T06:57:15.483Z,97910.94
2023-06-07T06:59:43.015Z,97914.75
2023-06-07T07:02:11.824Z,97913.72
2023-06-07T07:04:40.957Z,97908.50
2023-06-07T07:07:08.533Z,97919.84
2023-06-07T07:09:36.322Z,97911.88
2023-06-07T07:12:04.271Z,97915.50
2023-06-07T07:14:31.738Z,97919.47
2023-06-07T07:16:59.374Z,97918.41
2023-06-07T07:19:27.010Z,97920.56
2023-06-07T07:21:55.962Z,97907.19
2023-06-07T07:24:23.508Z,97912.63
2023-06-07T07:26:51.255Z,97910.34
2023-06-07T07:29:18.794Z,97918.72
2023-06-07T07:31:46.363Z,97919.44
2023-06-07T07:34:15.264Z,97917.78
2023-06-07T07:36:45.019Z,97915.13
2023-06-07T07:39:14.214Z,97921.91
2023-06-07T07:41:42.294Z,97917.91
2023-06-07T07:44:09.886Z,97919.16
2023-06-07T07:46:37.564Z,97922.09
2023-06-07T07:49:05.121Z,97922.31
2023-06-07T07:51:32.749Z,97916.31
2023-06-07T07:54:01.248Z,97915.97
2023-06-07T07:56:30.089Z,97915.94
2023-06-07T07:58:57.665Z,97910.03
2023-06-07T08:01:25.187Z,97905.84
2023-06-07T08:03:53.095Z,97911.13
2023-06-07T08:06:21.125Z,97909.59
2023-06-07T08:08:48.803Z,97906.06
2023-06-07T08:11:16.377Z,97902.53
2023-06-07T08:13:45.516Z,97905.09
2023-06-07T08:16:13.578Z,97902.28
2023-06-07T08:18:41.033Z,97891.41
2023-06-07T08:21:08.553Z,97897.75
2023-06-07T08:23:37.501Z,97898.72
2023-06-07T08:26:05.197Z,97907.28
2023-06-07T08:28:32.752Z,97896.50
2023-06-07T08:31:04.799Z,97895.66
2023-06-07T08:33:32.363Z,97890.91
2023-06-07T08:35:59.840Z,97895.63
2023-06-07T08:38:27.421Z,97893.13
2023-06-07T08:40:55.982Z,97901.22
2023-06-07T08:43:23.728Z,97894.41
2023-06-07T08:45:51.828Z,97887.84
2023-06-07T08:48:22.069Z,97887.97
2023-06-07T08:50:55.284Z,97880.03
2023-06-07T08:53:29.141Z,97882.22
2023-06-07T08:55:59.350Z,97888.25
2023-06-07T08:58:28.818Z,97895.56
2023-06-07T09:01:00.616Z,97885.19
2023-06-07T09:03:29.679Z,97892.78
2023-06-07T09:08:22.491Z,97883.63
2023-06-07T09:10:50.075Z,97889.88
2023-06-07T09:13:20.989Z,97881.31
2023-06-07T09:15:50.460Z,97881.94
2023-06-07T09:18:18.339Z,97896.81
2023-06-07T09:20:47.390Z,97890.91
2023-06-07T09:23:16.013Z,97888.75
2023-06-07T09:25:45.580Z,97885.44
2023-06-07T09:28:14.242Z,97892.31
2023-06-07T09:30:55.698Z,97882.06
2023-06-07T09:33:30.843Z,97870.44
2023-06-07T09:36:07.762Z,97873.56
2023-06-07T09:38:35.506Z,97864.88
2023-06-07T09:41:06.242Z,97869.50
2023-06-07T09:43:44.021Z,97865.84
2023-06-07T09:46:12.019Z,97867.88
2023-06-07T09:48:47.610Z,97857.53
2023-06-07T09:51:17.119Z,97882.84
2023-06-07T09:53:52.457Z,97877.31
2023-06-07T09:56:21.209Z,97869.50
2023-06-07T09:58:50.593Z,97866.75
2023-06-07T10:01:33.827Z,97864.13
2023-06-07T10:04:03.592Z,97855.44
2023-06-07T10:06:39.611Z,97863.84
2023-06-07T10:09:08.789Z,97851.34
2023-06-07T10:11:38.677Z,97849.44
2023-06-07T10:14:08.612Z,97858.56
2023-06-07T10:16:38.342Z,97859.69
2023-06-07T10:19:13.556Z,97854.06
2023-06-07T10:21:46.581Z,97850.31
2023-06-07T10:24:20.269Z,97847.00
2023-06-07T10:26:54.734Z,97850.16
2023-06-07T10:29:30.751Z,97846.63
2023-06-07T10:32:07.742Z,97856.38
2023-06-07T10:34:37.300Z,97851.81
2023-06-07T10:37:08.292Z,97834.94
2023-06-07T10:39:36.490Z,97845.22
2023-06-07T10:42:04.518Z,97844.41
2023-06-07T10:44:32.676Z,97846.41
2023-06-07T10:47:25.915Z,97843.44
2023-06-07T10:49:54.685Z,97834.44
2023-06-07T10:52:24.055Z,97835.81
2023-06-07T10:54:52.911Z,97830.31
2023-06-07T10:57:33.853Z,97834.44
2023-06-07T11:00:31.170Z,97839.84
2023-06-07T11:03:36.663Z,97839.19
2023-06-07T11:06:06.506Z,97835.91
2023-06-07T11:08:37.680Z,97840.03
2023-06-07T11:11:27.140Z,97825.53
2023-06-07T11:14:14.212Z,97827.78
2023-06-07T11:16:42.598Z,97826.97
2023-06-07T11:19:14.147Z,97832.13
2023-06-07T11:22:06.329Z,97823.19
2023-06-07T11:24:37.863Z,97824.28
2023-06-07T11:27:11.785Z,97835.75
2023-06-07T11:29:40.718Z,97808.19
2023-06-07T11:32:11.115Z,97802.16
2023-06-07T11:34:38.927Z,97812.78
2023-06-07T11:37:17.717Z,97807.16
2023-06-07T11:39:47.259Z,97804.25
2023-06-07T11:42:14.860Z,97810.56
2023-06-07T11:44:43.250Z,97807.94
2023-06-07T11:47:11.193Z,97795.47
2023-06-07T11:49:42.145Z,97791.03
2023-06-07T11:52:10.487Z,97793.38
2023-06-07T11:54:44.018Z,97802.41
2023-06-07T11:57:12.965Z,97795.72
2023-06-07T11:59:42.041Z,97796.78
2023-06-07T12:02:10.514Z,97801.69
2023-06-07T12:04:38.340Z,97796.06
2023-06-07T12:07:21.264Z,97802.84
2023-06-07T12:09:51.376Z,97791.97
2023-06-07T12:12:20.443Z,97790.31
2023-06-07T12:14:52.404Z,97780.84
2023-06-07T12:17:20.547Z,97792.88
2023-06-07T12:19:48.108Z,97771.81
2023-06-07T12:22:15.893Z,97792.16
2023-06-07T12:24:43.503Z,97778.41
2023-06-07T12:27:13.995Z,97771.53
2023-06-07T12:29:43.881Z,97763.78
2023-06-07T12:32:12.688Z,97767.88
2023-06-07T12:34:45.392Z,97774.19
2023-06-07T12:37:13.952Z,97762.06
2023-06-07T12:39:41.782Z,97762.97
2023-06-07T12:42:09.564Z,97760.59
2023-06-07T12:44:37.197Z,97760.34
2023-06-07T12:47:06.603Z,97753.19
2023-06-07T12:49:34.269Z,97750.75
2023-06-07T12:52:03.729Z,97744.00
2023-06-07T12:54:31.294Z,97743.63
2023-06-07T12:56:58.945Z,97748.47
2023-06-07T12:59:26.565Z,97746.97
2023-06-07T13:01:54.286Z,97749.72
2023-06-07T13:04:24.193Z,97750.00
2023-06-07T13:06:51.826Z,97737.66
2023-06-07T13:09:20.001Z,97746.09
2023-06-07T13:11:47.927Z,97733.81
2023-06-07T13:14:17.560Z,97720.13
2023-06-07T13:16:45.328Z,97725.09
2023-06-07T13:19:12.980Z,97724.78
2023-06-07T13:21:43.220Z,97731.88
2023-06-07T13:24:10.920Z,97724.13
2023-06-07T13:26:38.511Z,97719.50
2023-06-07T13:29:06.082Z,97728.41
2023-06-07T13:31:33.638Z,97726.28
2023-06-07T13:34:03.022Z,97712.81
2023-06-07T13:36:30.518Z,97719.06
2023-06-07T13:38:59.914Z,97710.63
2023-06-07T13:41:30.396Z,97712.53
2023-06-07T13:44:15.577Z,97694.13
2023-06-07T13:46:45.509Z,97702.84
2023-06-07T13:49:13.882Z,97716.63
2023-06-07T13:51:41.589Z,97700.28
2023-06-07T13:54:10.537Z,97691.66
2023-06-07T13:56:38.168Z,97704.78
2023-06-07T13:59:05.748Z,97697.22
2023-06-07T14:01:33.595Z,97699.00
2023-06-07T14:04:03.766Z,97692.25
2023-06-07T14:06:31.466Z,97694.34
2023-06-07T14:08:59.033Z,97688.50
2023-06-07T14:11:28.290Z,97685.16
2023-06-07T14:13:55.877Z,97676.09
2023-06-07T14:16:24.918Z,97680.16
2023-06-07T14:18:53.997Z,97689.34
2023-06-07T14:21:21.554Z,97684.88
2023-06-07T14:23:49.185Z,97685.09
2023-06-07T14:26:16.887Z,97689.47
2023-06-07T14:28:45.806Z,97679.72
2023-06-07T14:31:14.083Z,97683.63
2023-06-07T14:33:41.684Z,97668.03
2023-06-07T14:36:09.186Z,97663.00
2023-06-07T14:38:37.772Z,97659.81
2023-06-07T14:41:05.435Z,97667.06
2023-06-07T14:43:32.952Z,97665.84
2023-06-07T14:46:01.879Z,97667.28
2023-06-07T14:48:29.399Z,97667.94
2023-06-07T14:50:57.054Z,97669.97
2023-06-07T14:53:24.626Z,97673.53
2023-06-07T14:55:52.224Z,97678.09
2023-06-07T14:58:19.727Z,97672.25
2023-06-07T15:00:47.225Z,97661.50
2023-06-07T15:03:17.127Z,97665.47
2023-06-07T15:05:44.771Z,97664.63
2023-06-07T15:08:12.259Z,97656.75
2023-06-07T15:10:39.722Z,97647.09
2023-06-07T15:13:07.225Z,97646.34
2023-06-07T15:15:34.878Z,97635.44
2023-06-07T15:18:02.434Z,97640.94
2023-06-07T15:20:31.282Z,97641.25
2023-06-07T15:22:58.811Z,97640.44
2023-06-07T15:25:26.674Z,97644.28
2023-06-07T15:27:54.165Z,97647.13
2023-06-07T15:30:21.689Z,97641.00
2023-06-07T15:32:49.205Z,97639.03
2023-06-07T15:35:16.758Z,97632.13
2023-06-07T15:37:45.746Z,97634.69
2023-06-07T15:40:13.478Z,97634.16
2023-06-07T15:42:40.825Z,97638.66
2023-06-07T15:45:09.172Z,97625.69
2023-06-07T15:47:36.954Z,97625.81
2023-06-07T15:50:04.807Z,97615.56
2023-06-07T15:52:32.453Z,97621.28
2023-06-07T15:55:01.287Z,97623.03
2023-06-07T15:57:28.883Z,97621.22
2023-06-07T15:59:56.401Z,97611.94
2023-06-07T16:02:23.976Z,97625.75
2023-06-07T16:04:51.497Z,97608.88
2023-06-07T16:07:19.054Z,97591.06
2023-06-07T16:09:46.544Z,97587.34
2023-06-07T16:12:15.825Z,97590.56
2023-06-07T16:14:44.192Z,97594.66
2023-06-07T16:17:11.766Z,97589.78
2023-06-07T16:19:39.599Z,97597.78
2023-06-07T16:22:09.084Z,97580.91
2023-06-07T16:24:36.563Z,97590.25
2023-06-07T16:27:04.322Z,97585.66
2023-06-07T16:29:33.037Z,97586.94
2023-06-07T16:32:00.523Z,97590.25
2023-06-07T16:34:28.024Z,97615.44
2023-06-07T16:36:55.554Z,97612.81
2023-06-07T16:39:23.105Z,97610.06
2023-06-07T16:41:50.597Z,97615.25
2023-06-07T16:44:19.132Z,97617.03
2023-06-07T16:46:48.571Z,97610.91
2023-06-07T16:49:16.287Z,97620.63
2023-06-07T16:51:43.833Z,97615.25
2023-06-07T16:54:12.147Z,97606.66
2023-06-07T16:56:39.672Z,97605.03
2023-06-07T16:59:07.597Z,97614.25
2023-06-07T17:01:36.526Z,97614.66
2023-06-07T17:04:05.903Z,97608.13
2023-06-07T17:06:33.525Z,97613.91
2023-06-07T17:09:01.018Z,97614.44
2023-06-07T17:11:28.619Z,97614.84
2023-06-07T17:13:56.437Z,97615.38
2023-06-07T17:16:24.071Z,97624.28
2023-06-07T17:18:51.616Z,97619.41
2023-06-07T17:21:20.706Z,97621.00
2023-06-07T17:23:48.383Z,97625.16
2023-06-07T17:26:15.974Z,97620.31
2023-06-07T17:28:43.512Z,97616.66
2023-06-07T17:31:11.779Z,97621.97
2023-06-07T17:33:41.706Z,97627.34
2023-06-07T17:36:09.941Z,97625.31
2023-06-07T17:38:38.897Z,97625.56
2023-06-07T17:41:06.516Z,97625.69
2023-06-07T17:43:34.101Z,97626.97
2023-06-07T17:46:01.675Z,97632.19
2023-06-07T17:48:29.288Z,97638.88
2023-06-07T17:50:56.875Z,97632.06
2023-06-07T17:53:24.426Z,97623.56
2023-06-07T17:55:53.245Z,97624.75
2023-06-07T17:58:20.852Z,97626.94
2023-06-07T18:00:48.352Z,97645.88
2023-06-07T18:03:19.938Z,97631.88
2023-06-07T18:05:47.808Z,97632.41
2023-06-07T18:08:15.733Z,97637.91
2023-06-07T18:10:43.273Z,97637.69
2023-06-07T18:13:12.145Z,97638.50
2023-06-07T18:15:39.680Z,97634.97
2023-06-07T18:18:07.276Z,97633.63
2023-06-07T18:20:34.856Z,97636.09
2023-06-07T18:23:04.782Z,97638.59
2023-06-07T18:25:32.809Z,97635.59
2023-06-07T18:28:00.323Z,97636.41
2023-06-07T18:30:29.399Z,97636.41
2023-06-07T18:35:24.873Z,97635.59
2023-06-07T18:37:52.376Z,97636.97
2023-06-07T18:40:22.350Z,97636.16
2023-06-07T18:42:49.980Z,97647.66
2023-06-07T18:45:17.779Z,97641.63
2023-06-07T18:47:46.978Z,97643.81
2023-06-07T18:50:14.669Z,97643.00
2023-06-07T18:52:42.207Z,97644.66
2023-06-07T18:55:10.354Z,97642.75
2023-06-07T18:57:38.393Z,97644.41
2023-06-07T19:00:06.476Z,97649.03
2023-06-07T19:02:34.285Z,97644.69
2023-06-07T19:05:03.225Z,97644.38
2023-06-07T19:07:30.996Z,97646.31
2023-06-07T19:09:58.559Z,97654.50
2023-06-07T19:12:28.962Z,97652.31
2023-06-07T19:14:56.988Z,97652.81
2023-06-07T19:17:24.792Z,97656.69
2023-06-07T19:19:52.202Z,97650.13
2023-06-07T19:22:21.076Z,97652.03
2023-06-07T19:24:48.622Z,97659.41
2023-06-07T19:27:16.707Z,97665.31
2023-06-07T19:29:44.245Z,97670.69
2023-06-07T19:32:14.936Z,97666.69
2023-06-07T19:34:42.438Z,97671.28
2023-06-07T19:37:09.930Z,97654.13
2023-06-07T19:39:39.092Z,97665.81
2023-06-07T19:42:09.175Z,97666.66
2023-06-07T19:44:38.591Z,97669.91
2023-06-07T19:47:06.758Z,97674.53
2023-06-07T19:49:34.376Z,97673.16
2023-06-07T19:52:03.726Z,97673.72
2023-06-07T19:54:31.818Z,97675.06
2023-06-07T19:57:00.711Z,97669.44
2023-06-07T19:59:28.308Z,97675.31
2023-06-07T20:01:56.971Z,97686.63
2023-06-07T20:04:24.522Z,97681.25
2023-06-07T20:06:52.035Z,97683.16
2023-06-07T20:09:19.519Z,97687.66
2023-06-07T20:11:47.023Z,97679.34
2023-06-07T20:14:17.174Z,97696.47
2023-06-07T20:16:44.744Z,97686.44
2023-06-07T20:19:12.266Z,97688.91
2023-06-07T20:21:39.800Z,97700.50
2023-06-07T20:24:07.473Z,97690.84
2023-06-07T20:26:38.005Z,97694.78
2023-06-07T20:29:05.695Z,97692.16
2023-06-07T20:31:34.610Z,97693.41
2023-06-07T20:34:02.191Z,97696.06
2023-06-07T20:36:29.727Z,97687.41
2023-06-07T20:38:57.284Z,97696.94
2023-06-07T20:41:24.782Z,97707.22
2023-06-07T20:43:52.259Z,97697.75
2023-06-07T20:46:19.846Z,97699.66
2023-06-07T20:48:48.726Z,97693.34
2023-06-07T20:51:16.486Z,97698.81
2023-06-07T20:53:44.167Z,97708.91
2023-06-07T20:56:11.796Z,97709.44
2023-06-07T20:58:39.300Z,97716.22
2023-06-07T21:01:06.867Z,97719.38
2023-06-07T21:03:34.697Z,97718.53
2023-06-07T21:06:03.546Z,97715.00
2023-06-07T21:08:31.073Z,97713.03
2023-06-07T21:10:58.652Z,97719.00
2023-06-07T21:13:26.366Z,97716.44
2023-06-07T21:15:53.925Z,97715.50
2023-06-07T21:18:21.456Z,97715.38
2023-06-07T21:20:48.987Z,97716.50
2023-06-07T21:23:17.893Z,97719.09
2023-06-07T21:25:45.515Z,97716.31
2023-06-07T21:28:13.061Z,97718.59
2023-06-07T21:30:40.686Z,97715.59
2023-06-07T21:33:08.324Z,97720.94
2023-06-07T21:35:35.869Z,97719.81
2023-06-07T21:38:03.455Z,97723.75
2023-06-07T21:40:32.447Z,97715.22
2023-06-07T21:42:59.974Z,97715.78
2023-06-07T21:45:28.156Z,97725.41
2023-06-07T21:47:55.895Z,97715.78
2023-06-07T21:50:23.486Z,97719.28
2023-06-07T21:52:51.859Z,97720.91
2023-06-07T21:55:19.483Z,97716.94
2023-06-07T21:57:48.366Z,97721.88
2023-06-07T22:00:16.553Z,97723.97
2023-06-07T22:02:44.259Z,97719.63
2023-06-07T22:05:11.893Z,97707.44
2023-06-07T22:07:41.555Z,97712.91
2023-06-07T22:10:10.022Z,97709.25
2023-06-07T22:12:38.256Z,97716.66
2023-06-07T22:15:08.979Z,97712.13
2023-06-07T22:17:37.591Z,97716.63
2023-06-07T22:20:07.242Z,97712.88
2023-06-07T22:22:35.402Z,97712.28
2023-06-07T22:25:03.034Z,97711.69
2023-06-07T22:27:33.892Z,97711.97
2023-06-07T22:30:01.424Z,97708.34
2023-06-07T22:32:30.748Z,97712.78
2023-06-07T22:35:05.094Z,97706.88
2023-06-07T22:37:38.003Z,97712.94
2023-06-07T22:40:07.541Z,97711.53
2023-06-07T22:42:35.713Z,97706.66
2023-06-07T22:45:03.780Z,97707.91
2023-06-07T22:47:33.342Z,97703.00
2023-06-07T22:50:01.753Z,97702.69
2023-06-07T22:52:34.225Z,97700.28
2023-06-07T22:55:01.906Z,97702.69
2023-06-07T22:57:29.546Z,97701.84
2023-06-07T22:59:57.186Z,97703.44
2023-06-07T23:02:24.719Z,97704.47
2023-06-07T23:04:53.634Z,97707.69
2023-06-07T23:07:21.921Z,97702.78
2023-06-07T23:09:49.939Z,97701.13
2023-06-07T23:12:17.400Z,97687.81
2023-06-07T23:14:49.487Z,97695.13
2023-06-07T23:17:17.665Z,97694.81
2023-06-07T23:19:46.552Z,97698.81
2023-06-07T23:22:17.967Z,97692.06
2023-06-07T23:24:49.141Z,97690.09
2023-06-07T23:27:16.845Z,97695.59
2023-06-07T23:29:44.401Z,97685.19
2023-06-07T23:32:12.267Z,97694.34
2023-06-07T23:34:40.121Z,97689.66
2023-06-07T23:37:07.692Z,97688.38
2023-06-07T23:39:36.584Z,97690.78
2023-06-07T23:42:04.563Z,97693.16
2023-06-07T23:44:32.334Z,97688.53
2023-06-07T23:47:00.561Z,97692.91
2023-06-07T23:49:35.018Z,97686.59
2023-06-07T23:52:02.773Z,97691.00
2023-06-07T23:54:30.402Z,97692.50
2023-06-07T23:56:59.281Z,97696.00
2023-06-07T23:59:26.863Z,97692.31
